createdAt,value
2023-08-07T00:03:32.322Z,3.87
2023-08-07T00:09:34.317Z,3.90
2023-08-07T00:15:39.750Z,3.50
2023-08-07T00:21:43.049Z,4.17
2023-08-07T00:27:45.050Z,3.37
2023-08-07T00:33:47.472Z,2.87
2023-08-07T00:39:49.418Z,2.87
2023-08-07T00:45:51.387Z,2.40
2023-08-07T00:51:54.110Z,2.73
2023-08-07T00:57:56.131Z,2.90
2023-08-07T01:03:58.099Z,2.60
2023-08-07T01:10:04.189Z,2.20
2023-08-07T01:16:15.226Z,2.60
2023-08-07T01:22:19.004Z,2.73
2023-08-07T01:28:29.302Z,2.77
2023-08-07T01:34:32.560Z,2.47
2023-08-07T01:40:35.820Z,4.07
2023-08-07T01:46:37.861Z,3.60
2023-08-07T01:52:39.826Z,4.00
2023-08-07T01:58:41.769Z,3.80
2023-08-07T02:04:44.359Z,3.17
2023-08-07T02:10:46.376Z,3.53
2023-08-07T02:16:48.309Z,3.73
2023-08-07T02:22:50.239Z,3.67
2023-08-07T02:28:52.230Z,3.70
2023-08-07T02:34:54.283Z,4.80
2023-08-07T02:40:56.232Z,3.10
2023-08-07T02:46:58.504Z,3.50
2023-08-07T02:53:01.717Z,3.80
2023-08-07T02:59:03.753Z,3.30
2023-08-07T03:05:05.988Z,3.40
2023-08-07T03:11:07.990Z,3.87
2023-08-07T03:17:09.950Z,3.00
2023-08-07T03:23:12.147Z,3.20
2023-08-07T03:29:14.198Z,2.90
2023-08-07T03:35:16.208Z,2.70
2023-08-07T03:41:18.229Z,2.73
2023-08-07T03:47:20.243Z,2.50
2023-08-07T03:53:22.240Z,2.90
2023-08-07T03:59:24.583Z,3.10
2023-08-07T04:05:26.563Z,2.60
2023-08-07T04:11:28.503Z,2.50
2023-08-07T04:17:30.465Z,2.97
2023-08-07T04:23:32.735Z,2.47
2023-08-07T04:29:34.866Z,2.23
2023-08-07T04:35:37.412Z,2.10
2023-08-07T04:41:39.321Z,2.57
2023-08-07T04:47:42.248Z,2.20
2023-08-07T04:53:44.332Z,1.70
2023-08-07T04:59:46.300Z,2.30
2023-08-07T05:05:48.281Z,2.30
2023-08-07T05:11:50.224Z,2.93
2023-08-07T05:17:56.018Z,3.37
2023-08-07T05:23:57.943Z,2.57
2023-08-07T05:30:00.904Z,3.40
2023-08-07T05:36:02.834Z,3.17
2023-08-07T05:42:05.561Z,2.70
2023-08-07T05:48:08.361Z,2.43
2023-08-07T05:54:10.506Z,2.57
2023-08-07T06:00:18.591Z,3.20
2023-08-07T06:06:20.512Z,3.03
2023-08-07T06:12:22.420Z,2.77
2023-08-07T06:18:24.410Z,3.43
2023-08-07T06:24:26.876Z,3.20
2023-08-07T06:30:28.936Z,3.23
2023-08-07T06:36:30.849Z,3.30
2023-08-07T06:42:32.762Z,3.20
2023-08-07T06:48:34.731Z,3.30
2023-08-07T06:54:36.685Z,3.37
2023-08-07T07:00:38.806Z,2.90
2023-08-07T07:06:40.854Z,2.80
2023-08-07T07:12:42.943Z,2.93
2023-08-07T07:18:44.940Z,2.50
2023-08-07T07:24:46.853Z,3.60
2023-08-07T07:30:48.916Z,2.53
2023-08-07T07:36:52.065Z,2.20
2023-08-07T07:42:54.028Z,2.37
2023-08-07T07:49:09.645Z,2.50
2023-08-07T07:55:13.268Z,2.27
2023-08-07T08:01:15.295Z,2.40
2023-08-07T08:07:17.553Z,2.20
2023-08-07T08:13:20.289Z,2.17
2023-08-07T08:19:22.426Z,2.17
2023-08-07T08:25:24.410Z,2.33
2023-08-07T08:31:26.435Z,1.97
2023-08-07T08:37:30.238Z,1.87
2023-08-07T08:43:37.072Z,2.67
2023-08-07T08:49:49.509Z,2.10
2023-08-07T08:55:52.398Z,1.97
2023-08-07T09:01:54.459Z,1.87
2023-08-07T09:07:57.703Z,1.47
2023-08-07T09:14:02.531Z,1.60
2023-08-07T09:20:05.780Z,1.73
2023-08-07T09:26:09.410Z,2.23
2023-08-07T09:32:15.138Z,1.90
2023-08-07T09:38:17.172Z,1.93
2023-08-07T09:44:19.146Z,1.50
2023-08-07T09:50:23.290Z,1.97
2023-08-07T09:56:25.323Z,1.90
2023-08-07T10:02:27.400Z,1.97
2023-08-07T10:08:29.763Z,1.70
2023-08-07T10:14:31.958Z,1.30
2023-08-07T10:20:34.147Z,1.73
2023-08-07T10:26:42.532Z,1.80
2023-08-07T10:32:45.538Z,2.03
2023-08-07T10:38:52.582Z,1.50
2023-08-07T10:44:54.566Z,2.30
2023-08-07T10:50:57.990Z,1.93
2023-08-07T10:57:02.491Z,2.67
2023-08-07T11:03:04.729Z,2.03
2023-08-07T11:09:09.691Z,1.83
2023-08-07T11:15:14.802Z,1.70
2023-08-07T11:21:16.826Z,1.93
2023-08-07T11:27:18.905Z,1.70
2023-08-07T11:33:22.121Z,1.70
2023-08-07T11:39:25.553Z,1.63
2023-08-07T11:45:27.961Z,2.17
2023-08-07T11:51:30.429Z,1.77
2023-08-07T11:57:32.417Z,2.00
2023-08-07T12:03:40.906Z,2.93
2023-08-07T12:09:42.936Z,2.10
2023-08-07T12:15:44.914Z,1.63
2023-08-07T12:21:46.911Z,1.67
2023-08-07T12:27:49.757Z,2.37
2023-08-07T12:33:52.751Z,2.07
2023-08-07T12:52:23.386Z,1.70
2023-08-07T12:58:27.050Z,2.00
2023-08-07T13:04:29.042Z,1.17
2023-08-07T13:10:32.476Z,1.83
2023-08-07T13:16:34.697Z,2.17
2023-08-07T13:22:43.771Z,1.80
2023-08-07T13:28:45.794Z,1.80
2023-08-07T13:34:47.941Z,1.93
2023-08-07T13:40:50.400Z,1.90
2023-08-07T13:46:52.775Z,2.00
2023-08-07T13:53:04.350Z,2.10
2023-08-07T13:59:15.325Z,1.70
2023-08-07T14:05:17.279Z,2.30
2023-08-07T14:11:20.461Z,2.33
2023-08-07T14:17:22.400Z,2.97
2023-08-07T14:23:24.456Z,2.50
2023-08-07T14:29:26.452Z,2.33
2023-08-07T14:35:28.509Z,2.27
2023-08-07T14:41:30.521Z,2.67
2023-08-07T14:47:32.592Z,1.73
2023-08-07T14:53:35.355Z,1.87
2023-08-07T14:59:37.343Z,2.73
2023-08-07T15:05:39.300Z,2.10
2023-08-07T15:11:42.045Z,2.13
2023-08-07T15:17:44.216Z,2.17
2023-08-07T15:23:46.169Z,2.17
2023-08-07T15:29:48.152Z,2.03
2023-08-07T15:35:52.698Z,1.73
2023-08-07T15:41:54.746Z,1.80
2023-08-07T15:47:56.855Z,2.30
2023-08-07T15:53:59.721Z,1.67
2023-08-07T16:00:01.928Z,1.80
2023-08-07T16:06:04.002Z,2.23
2023-08-07T16:12:06.438Z,1.70
2023-08-07T16:18:08.458Z,1.87
2023-08-07T16:24:10.489Z,1.70
2023-08-07T16:30:12.965Z,1.70
2023-08-07T16:36:14.914Z,2.67
2023-08-07T16:42:17.157Z,1.73
2023-08-07T16:48:19.084Z,2.37
2023-08-07T16:54:21.123Z,2.37
2023-08-07T17:00:23.580Z,2.00
2023-08-07T17:06:25.540Z,2.10
2023-08-07T17:12:27.497Z,1.70
2023-08-07T17:18:29.439Z,2.13
2023-08-07T17:24:31.408Z,2.47
2023-08-07T17:30:33.652Z,2.00
2023-08-07T17:36:35.612Z,2.40
2023-08-07T17:42:37.573Z,2.00
2023-08-07T17:48:40.174Z,2.30
2023-08-07T17:54:42.253Z,2.30
2023-08-07T18:00:44.358Z,2.00
2023-08-07T18:06:46.514Z,1.73
2023-08-07T18:12:48.481Z,2.40
2023-08-07T18:18:50.525Z,2.13
2023-08-07T18:24:52.570Z,2.00
2023-08-07T18:30:54.547Z,1.90
2023-08-07T18:36:56.816Z,2.23
2023-08-07T18:42:59.087Z,2.60
2023-08-07T18:49:01.229Z,2.17
2023-08-07T18:55:03.327Z,2.13
2023-08-07T19:01:06.573Z,1.93
2023-08-07T19:07:12.696Z,3.37
2023-08-07T19:13:15.122Z,2.67
2023-08-07T19:19:17.111Z,1.90
2023-08-07T19:25:19.099Z,2.20
2023-08-07T19:31:21.142Z,2.00
2023-08-07T19:37:23.446Z,1.90
2023-08-07T19:43:25.476Z,2.10
2023-08-07T19:49:27.436Z,2.30
2023-08-07T19:55:30.592Z,2.40
2023-08-07T20:01:32.918Z,2.27
2023-08-07T20:07:34.964Z,2.53
2023-08-07T20:13:36.955Z,2.60
2023-08-07T20:19:38.948Z,2.63
2023-08-07T20:25:41.016Z,3.50
2023-08-07T20:31:43.060Z,3.00
2023-08-07T20:37:45.051Z,2.40
2023-08-07T20:43:48.851Z,2.90
2023-08-07T20:49:51.026Z,2.70
2023-08-07T20:55:53.162Z,2.53
2023-08-07T21:01:55.464Z,2.80
2023-08-07T21:07:57.464Z,3.10
2023-08-07T21:14:02.475Z,2.80
2023-08-07T21:20:04.988Z,2.70
2023-08-07T21:26:07.041Z,3.17
2023-08-07T21:32:09.410Z,2.90
2023-08-07T21:38:11.384Z,3.50
2023-08-07T21:44:13.364Z,2.30
2023-08-07T21:50:15.304Z,2.40
2023-08-07T21:56:17.764Z,2.87
2023-08-07T22:02:19.800Z,2.60
2023-08-07T22:08:21.869Z,2.50
2023-08-07T22:14:23.831Z,3.10
2023-08-07T22:20:25.973Z,2.90
2023-08-07T22:26:28.075Z,2.80
2023-08-07T22:32:30.373Z,2.30
2023-08-07T22:38:32.528Z,3.00
2023-08-07T22:44:34.821Z,2.27
2023-08-07T22:50:36.791Z,2.93
2023-08-07T22:56:38.827Z,2.70
2023-08-07T23:02:41.261Z,3.03
2023-08-07T23:08:43.351Z,2.80
2023-08-07T23:14:45.340Z,3.30
2023-08-07T23:20:47.293Z,2.47
2023-08-07T23:26:49.272Z,2.90
2023-08-07T23:32:51.314Z,2.80
2023-08-07T23:38:53.377Z,2.60
2023-08-07T23:44:55.464Z,3.10
2023-08-07T23:50:57.448Z,3.07
2023-08-07T23:57:00.092Z,2.27
